sensor_id;sensor_type;location;lat;lon;timestamp;temperature;humidity
40600;DHT22;26309;50.924;4.754;2023-01-28T00:00:06;5.10;99.90
40600;DHT22;26309;50.924;4.754;2023-01-28T00:02:36;5.30;99.90
40600;DHT22;26309;50.924;4.754;2023-01-28T00:05:02;5.30;99.90
40600;DHT22;26309;50.924;4.754;2023-01-28T00:07:28;5.20;99.90
40600;DHT22;26309;50.924;4.754;2023-01-28T00:09:54;5.10;99.90
40600;DHT22;26309;50.924;4.754;2023-01-28T00:12:21;5.10;99.90
40600;DHT22;26309;50.924;4.754;2023-01-28T00:14:46;5.30;99.90
40600;DHT22;26309;50.924;4.754;2023-01-28T00:17:15;5.30;99.90
40600;DHT22;26309;50.924;4.754;2023-01-28T00:19:45;5.40;99.90
40600;DHT22;26309;50.924;4.754;2023-01-28T00:22:11;5.40;99.90
40600;DHT22;26309;50.924;4.754;2023-01-28T00:24:37;5.20;99.90
40600;DHT22;26309;50.924;4.754;2023-01-28T00:27:02;5.10;99.90
40600;DHT22;26309;50.924;4.754;2023-01-28T00:29:28;5.00;99.90
40600;DHT22;26309;50.924;4.754;2023-01-28T00:31:54;5.10;99.90
40600;DHT22;26309;50.924;4.754;2023-01-28T00:34:20;5.10;99.90
40600;DHT22;26309;50.924;4.754;2023-01-28T00:36:46;5.10;99.90
40600;DHT22;26309;50.924;4.754;2023-01-28T00:39:22;5.20;99.90
40600;DHT22;26309;50.924;4.754;2023-01-28T00:41:48;5.20;99.90
40600;DHT22;26309;50.924;4.754;2023-01-28T00:44:13;5.10;99.90
40600;DHT22;26309;50.924;4.754;2023-01-28T00:46:39;5.20;99.90
40600;DHT22;26309;50.924;4.754;2023-01-28T00:49:08;5.40;99.90
40600;DHT22;26309;50.924;4.754;2023-01-28T00:51:34;5.30;99.90
40600;DHT22;26309;50.924;4.754;2023-01-28T00:54:00;5.30;99.90
40600;DHT22;26309;50.924;4.754;2023-01-28T00:56:26;5.30;99.90
40600;DHT22;26309;50.924;4.754;2023-01-28T00:58:52;5.40;99.90
40600;DHT22;26309;50.924;4.754;2023-01-28T01:01:23;5.50;99.90
40600;DHT22;26309;50.924;4.754;2023-01-28T01:03:50;5.40;99.90
40600;DHT22;26309;50.924;4.754;2023-01-28T01:06:33;5.60;99.90
40600;DHT22;26309;50.924;4.754;2023-01-28T01:09:00;5.60;99.90
40600;DHT22;26309;50.924;4.754;2023-01-28T01:11:26;5.80;99.90
40600;DHT22;26309;50.924;4.754;2023-01-28T01:13:57;5.70;99.90
40600;DHT22;26309;50.924;4.754;2023-01-28T01:16:26;5.70;99.90
40600;DHT22;26309;50.924;4.754;2023-01-28T01:18:53;5.60;99.90
40600;DHT22;26309;50.924;4.754;2023-01-28T01:21:21;5.50;99.90
40600;DHT22;26309;50.924;4.754;2023-01-28T01:23:48;5.40;99.90
40600;DHT22;26309;50.924;4.754;2023-01-28T01:26:14;5.50;99.90
40600;DHT22;26309;50.924;4.754;2023-01-28T01:28:40;5.60;99.90
40600;DHT22;26309;50.924;4.754;2023-01-28T01:31:09;5.40;99.90
40600;DHT22;26309;50.924;4.754;2023-01-28T01:33:36;5.50;99.90
40600;DHT22;26309;50.924;4.754;2023-01-28T01:36:01;5.30;99.90
40600;DHT22;26309;50.924;4.754;2023-01-28T01:38:28;5.30;99.90
40600;DHT22;26309;50.924;4.754;2023-01-28T01:40:58;5.20;99.90
40600;DHT22;26309;50.924;4.754;2023-01-28T01:43:25;5.00;99.90
40600;DHT22;26309;50.924;4.754;2023-01-28T01:46:00;5.00;99.90
40600;DHT22;26309;50.924;4.754;2023-01-28T01:48:32;5.00;99.90
40600;DHT22;26309;50.924;4.754;2023-01-28T01:51:11;5.10;99.90
40600;DHT22;26309;50.924;4.754;2023-01-28T01:53:41;5.10;99.90
40600;DHT22;26309;50.924;4.754;2023-01-28T01:56:11;5.00;99.90
40600;DHT22;26309;50.924;4.754;2023-01-28T01:58:39;5.10;99.90
40600;DHT22;26309;50.924;4.754;2023-01-28T02:01:07;5.20;99.90
40600;DHT22;26309;50.924;4.754;2023-01-28T02:06:24;5.40;99.90
40600;DHT22;26309;50.924;4.754;2023-01-28T02:08:53;5.50;99.90
40600;DHT22;26309;50.924;4.754;2023-01-28T02:11:21;5.30;99.90
40600;DHT22;26309;50.924;4.754;2023-01-28T02:13:50;5.30;99.90
40600;DHT22;26309;50.924;4.754;2023-01-28T02:16:18;5.40;99.90
40600;DHT22;26309;50.924;4.754;2023-01-28T02:18:45;5.30;99.90
40600;DHT22;26309;50.924;4.754;2023-01-28T02:21:35;5.40;99.90
40600;DHT22;26309;50.924;4.754;2023-01-28T02:32:17;5.50;99.90
40600;DHT22;26309;50.924;4.754;2023-01-28T02:35:00;5.60;99.90
40600;DHT22;26309;50.924;4.754;2023-01-28T02:40:12;5.60;99.90
40600;DHT22;26309;50.924;4.754;2023-01-28T02:42:40;5.60;99.90
40600;DHT22;26309;50.924;4.754;2023-01-28T02:45:41;5.60;99.90
40600;DHT22;26309;50.924;4.754;2023-01-28T02:48:26;5.40;99.90
40600;DHT22;26309;50.924;4.754;2023-01-28T02:53:40;5.40;99.90
40600;DHT22;26309;50.924;4.754;2023-01-28T02:56:28;5.40;99.90
40600;DHT22;26309;50.924;4.754;2023-01-28T02:59:02;5.30;99.90
40600;DHT22;26309;50.924;4.754;2023-01-28T03:02:07;5.20;99.90
40600;DHT22;26309;50.924;4.754;2023-01-28T03:04:48;5.10;99.90
40600;DHT22;26309;50.924;4.754;2023-01-28T03:07:16;5.00;99.90
40600;DHT22;26309;50.924;4.754;2023-01-28T03:09:44;4.90;99.90
40600;DHT22;26309;50.924;4.754;2023-01-28T03:12:19;5.00;99.90
40600;DHT22;26309;50.924;4.754;2023-01-28T03:15:16;5.00;99.90
40600;DHT22;26309;50.924;4.754;2023-01-28T03:18:06;4.90;99.90
40600;DHT22;26309;50.924;4.754;2023-01-28T03:24:04;4.90;99.90
40600;DHT22;26309;50.924;4.754;2023-01-28T03:27:04;4.80;99.90
40600;DHT22;26309;50.924;4.754;2023-01-28T03:29:52;4.80;99.90
40600;DHT22;26309;50.924;4.754;2023-01-28T03:32:39;4.70;99.90
40600;DHT22;26309;50.924;4.754;2023-01-28T03:35:28;4.90;99.90
40600;DHT22;26309;50.924;4.754;2023-01-28T03:38:13;5.00;99.90
40600;DHT22;26309;50.924;4.754;2023-01-28T03:40:59;4.90;99.90
40600;DHT22;26309;50.924;4.754;2023-01-28T03:43:25;4.90;99.90
40600;DHT22;26309;50.924;4.754;2023-01-28T03:45:51;5.00;99.90
40600;DHT22;26309;50.924;4.754;2023-01-28T03:48:22;5.00;99.90
40600;DHT22;26309;50.924;4.754;2023-01-28T03:50:49;5.00;99.90
40600;DHT22;26309;50.924;4.754;2023-01-28T03:53:16;5.00;99.90
40600;DHT22;26309;50.924;4.754;2023-01-28T03:55:43;5.00;99.90
40600;DHT22;26309;50.924;4.754;2023-01-28T03:58:10;4.90;99.90
40600;DHT22;26309;50.924;4.754;2023-01-28T04:00:37;4.90;99.90
40600;DHT22;26309;50.924;4.754;2023-01-28T04:03:11;5.00;99.90
40600;DHT22;26309;50.924;4.754;2023-01-28T04:06:02;5.00;99.90
40600;DHT22;26309;50.924;4.754;2023-01-28T04:08:29;4.80;99.90
40600;DHT22;26309;50.924;4.754;2023-01-28T04:10:55;4.80;99.90
40600;DHT22;26309;50.924;4.754;2023-01-28T04:13:21;4.90;99.90
40600;DHT22;26309;50.924;4.754;2023-01-28T04:15:47;4.70;99.90
40600;DHT22;26309;50.924;4.754;2023-01-28T04:18:12;4.60;99.90
40600;DHT22;26309;50.924;4.754;2023-01-28T04:20:38;4.60;99.90
40600;DHT22;26309;50.924;4.754;2023-01-28T04:23:05;4.60;99.90
40600;DHT22;26309;50.924;4.754;2023-01-28T04:25:32;4.60;99.90
40600;DHT22;26309;50.924;4.754;2023-01-28T04:27:58;4.50;99.90
40600;DHT22;26309;50.924;4.754;2023-01-28T04:30:24;4.40;99.90
40600;DHT22;26309;50.924;4.754;2023-01-28T04:32:50;4.50;99.90
40600;DHT22;26309;50.924;4.754;2023-01-28T04:35:17;4.50;99.90
40600;DHT22;26309;50.924;4.754;2023-01-28T04:37:44;4.60;99.90
40600;DHT22;26309;50.924;4.754;2023-01-28T04:40:11;4.80;99.90
40600;DHT22;26309;50.924;4.754;2023-01-28T04:42:37;4.80;99.90
40600;DHT22;26309;50.924;4.754;2023-01-28T04:45:04;4.90;99.90
40600;DHT22;26309;50.924;4.754;2023-01-28T04:47:30;4.90;99.90
40600;DHT22;26309;50.924;4.754;2023-01-28T04:49:55;5.00;99.90
40600;DHT22;26309;50.924;4.754;2023-01-28T04:52:21;5.00;99.90
40600;DHT22;26309;50.924;4.754;2023-01-28T04:54:47;5.00;99.90
40600;DHT22;26309;50.924;4.754;2023-01-28T04:57:13;5.10;99.90
40600;DHT22;26309;50.924;4.754;2023-01-28T04:59:40;5.20;99.90
40600;DHT22;26309;50.924;4.754;2023-01-28T05:02:06;5.10;99.90
40600;DHT22;26309;50.924;4.754;2023-01-28T05:04:31;5.10;99.90
40600;DHT22;26309;50.924;4.754;2023-01-28T05:06:57;5.10;99.90
40600;DHT22;26309;50.924;4.754;2023-01-28T05:09:23;5.10;99.90
40600;DHT22;26309;50.924;4.754;2023-01-28T05:11:51;5.20;99.90
40600;DHT22;26309;50.924;4.754;2023-01-28T05:14:17;5.10;99.90
40600;DHT22;26309;50.924;4.754;2023-01-28T05:16:43;5.10;99.90
40600;DHT22;26309;50.924;4.754;2023-01-28T05:19:09;5.00;99.90
40600;DHT22;26309;50.924;4.754;2023-01-28T05:21:34;5.00;99.90
40600;DHT22;26309;50.924;4.754;2023-01-28T05:24:00;5.00;99.90
40600;DHT22;26309;50.924;4.754;2023-01-28T05:26:26;5.10;99.90
40600;DHT22;26309;50.924;4.754;2023-01-28T05:28:52;5.10;99.90
40600;DHT22;26309;50.924;4.754;2023-01-28T05:31:18;5.00;99.90
40600;DHT22;26309;50.924;4.754;2023-01-28T05:33:43;5.00;99.90
40600;DHT22;26309;50.924;4.754;2023-01-28T05:36:09;5.10;99.90
40600;DHT22;26309;50.924;4.754;2023-01-28T05:38:35;5.10;99.90
40600;DHT22;26309;50.924;4.754;2023-01-28T05:41:00;5.10;99.90
40600;DHT22;26309;50.924;4.754;2023-01-28T05:43:26;5.00;99.90
40600;DHT22;26309;50.924;4.754;2023-01-28T05:45:53;5.10;99.90
40600;DHT22;26309;50.924;4.754;2023-01-28T05:48:19;5.00;99.90
40600;DHT22;26309;50.924;4.754;2023-01-28T05:50:47;5.00;99.90
40600;DHT22;26309;50.924;4.754;2023-01-28T05:53:14;4.90;99.90
40600;DHT22;26309;50.924;4.754;2023-01-28T05:55:40;4.90;99.90
40600;DHT22;26309;50.924;4.754;2023-01-28T05:58:06;5.00;99.90
40600;DHT22;26309;50.924;4.754;2023-01-28T06:00:32;5.00;99.90
40600;DHT22;26309;50.924;4.754;2023-01-28T06:02:58;5.00;99.90
40600;DHT22;26309;50.924;4.754;2023-01-28T06:05:23;4.90;99.90
40600;DHT22;26309;50.924;4.754;2023-01-28T06:07:50;5.00;99.90
40600;DHT22;26309;50.924;4.754;2023-01-28T06:10:16;5.00;99.90
40600;DHT22;26309;50.924;4.754;2023-01-28T06:12:43;5.20;99.90
40600;DHT22;26309;50.924;4.754;2023-01-28T06:15:09;5.20;99.90
40600;DHT22;26309;50.924;4.754;2023-01-28T06:17:35;5.10;99.90
40600;DHT22;26309;50.924;4.754;2023-01-28T06:20:01;5.20;99.90
40600;DHT22;26309;50.924;4.754;2023-01-28T06:22:26;5.10;99.90
40600;DHT22;26309;50.924;4.754;2023-01-28T06:24:52;5.10;99.90
40600;DHT22;26309;50.924;4.754;2023-01-28T06:27:18;4.80;99.90
40600;DHT22;26309;50.924;4.754;2023-01-28T06:29:43;4.80;99.90
40600;DHT22;26309;50.924;4.754;2023-01-28T06:32:09;4.80;99.90
40600;DHT22;26309;50.924;4.754;2023-01-28T06:34:35;4.80;99.90
40600;DHT22;26309;50.924;4.754;2023-01-28T06:37:01;4.60;99.90
40600;DHT22;26309;50.924;4.754;2023-01-28T06:39:29;4.60;99.90
40600;DHT22;26309;50.924;4.754;2023-01-28T06:41:57;4.70;99.90
40600;DHT22;26309;50.924;4.754;2023-01-28T06:44:23;4.70;99.90
40600;DHT22;26309;50.924;4.754;2023-01-28T06:46:49;4.60;99.90
40600;DHT22;26309;50.924;4.754;2023-01-28T06:49:15;4.60;99.90
40600;DHT22;26309;50.924;4.754;2023-01-28T06:51:41;4.50;99.90
40600;DHT22;26309;50.924;4.754;2023-01-28T06:54:07;4.30;99.90
40600;DHT22;26309;50.924;4.754;2023-01-28T06:56:35;4.40;99.90
40600;DHT22;26309;50.924;4.754;2023-01-28T06:59:01;4.50;99.90
40600;DHT22;26309;50.924;4.754;2023-01-28T07:01:27;4.50;99.90
40600;DHT22;26309;50.924;4.754;2023-01-28T07:03:53;4.40;99.90
40600;DHT22;26309;50.924;4.754;2023-01-28T07:06:19;4.40;99.90
40600;DHT22;26309;50.924;4.754;2023-01-28T07:08:44;4.60;99.90
40600;DHT22;26309;50.924;4.754;2023-01-28T07:11:10;4.60;99.90
40600;DHT22;26309;50.924;4.754;2023-01-28T07:13:36;4.70;99.90
40600;DHT22;26309;50.924;4.754;2023-01-28T07:16:02;4.60;99.90
40600;DHT22;26309;50.924;4.754;2023-01-28T07:18:29;4.60;99.90
40600;DHT22;26309;50.924;4.754;2023-01-28T07:20:54;4.30;99.90
40600;DHT22;26309;50.924;4.754;2023-01-28T07:23:21;4.20;99.90
40600;DHT22;26309;50.924;4.754;2023-01-28T07:25:46;4.40;99.90
40600;DHT22;26309;50.924;4.754;2023-01-28T07:28:12;4.30;99.90
40600;DHT22;26309;50.924;4.754;2023-01-28T07:30:38;4.30;99.90
40600;DHT22;26309;50.924;4.754;2023-01-28T07:33:04;4.40;99.90
40600;DHT22;26309;50.924;4.754;2023-01-28T07:35:30;4.30;99.90
40600;DHT22;26309;50.924;4.754;2023-01-28T07:37:59;4.30;99.90
40600;DHT22;26309;50.924;4.754;2023-01-28T07:40:25;4.20;99.90
40600;DHT22;26309;50.924;4.754;2023-01-28T07:42:52;4.20;99.90
40600;DHT22;26309;50.924;4.754;2023-01-28T07:45:20;4.10;99.90
40600;DHT22;26309;50.924;4.754;2023-01-28T07:48:03;4.20;99.90
40600;DHT22;26309;50.924;4.754;2023-01-28T07:50:30;4.10;99.90
40600;DHT22;26309;50.924;4.754;2023-01-28T07:52:57;4.00;99.90
40600;DHT22;26309;50.924;4.754;2023-01-28T07:55:24;4.20;99.90
40600;DHT22;26309;50.924;4.754;2023-01-28T07:57:56;4.30;99.90
40600;DHT22;26309;50.924;4.754;2023-01-28T08:00:23;4.20;99.90
40600;DHT22;26309;50.924;4.754;2023-01-28T08:02:53;4.10;99.90
40600;DHT22;26309;50.924;4.754;2023-01-28T08:05:20;4.10;99.90
40600;DHT22;26309;50.924;4.754;2023-01-28T08:07:47;4.20;99.90
40600;DHT22;26309;50.924;4.754;2023-01-28T08:10:14;4.10;99.90
40600;DHT22;26309;50.924;4.754;2023-01-28T08:12:53;4.10;99.90
40600;DHT22;26309;50.924;4.754;2023-01-28T08:15:19;4.00;99.90
40600;DHT22;26309;50.924;4.754;2023-01-28T08:17:45;4.00;99.90
40600;DHT22;26309;50.924;4.754;2023-01-28T08:20:13;4.00;99.90
40600;DHT22;26309;50.924;4.754;2023-01-28T08:22:39;4.00;99.90
40600;DHT22;26309;50.924;4.754;2023-01-28T08:25:07;3.90;99.90
40600;DHT22;26309;50.924;4.754;2023-01-28T08:27:33;3.90;99.90
40600;DHT22;26309;50.924;4.754;2023-01-28T08:29:59;4.00;99.90
40600;DHT22;26309;50.924;4.754;2023-01-28T08:32:24;3.90;99.90
40600;DHT22;26309;50.924;4.754;2023-01-28T08:34:50;4.00;99.90
40600;DHT22;26309;50.924;4.754;2023-01-28T08:37:16;4.20;99.90
40600;DHT22;26309;50.924;4.754;2023-01-28T08:39:42;4.70;99.90
40600;DHT22;26309;50.924;4.754;2023-01-28T08:42:08;4.80;99.90
40600;DHT22;26309;50.924;4.754;2023-01-28T08:44:33;4.70;99.90
40600;DHT22;26309;50.924;4.754;2023-01-28T08:46:59;4.70;99.90
40600;DHT22;26309;50.924;4.754;2023-01-28T08:49:25;4.80;99.90
40600;DHT22;26309;50.924;4.754;2023-01-28T08:51:51;4.80;99.90
40600;DHT22;26309;50.924;4.754;2023-01-28T08:54:17;4.70;99.90
40600;DHT22;26309;50.924;4.754;2023-01-28T08:56:43;4.30;99.90
40600;DHT22;26309;50.924;4.754;2023-01-28T08:59:12;4.40;99.90
40600;DHT22;26309;50.924;4.754;2023-01-28T09:01:38;4.60;99.90
40600;DHT22;26309;50.924;4.754;2023-01-28T09:04:03;4.60;99.90
40600;DHT22;26309;50.924;4.754;2023-01-28T09:06:29;4.40;99.90
40600;DHT22;26309;50.924;4.754;2023-01-28T09:08:59;4.60;99.90
40600;DHT22;26309;50.924;4.754;2023-01-28T09:11:26;4.70;99.90
40600;DHT22;26309;50.924;4.754;2023-01-28T09:13:52;4.80;99.90
40600;DHT22;26309;50.924;4.754;2023-01-28T09:16:18;4.80;99.90
40600;DHT22;26309;50.924;4.754;2023-01-28T09:18:44;4.80;99.90
40600;DHT22;26309;50.924;4.754;2023-01-28T09:21:10;4.80;99.90
40600;DHT22;26309;50.924;4.754;2023-01-28T09:23:37;4.80;99.90
40600;DHT22;26309;50.924;4.754;2023-01-28T09:26:04;4.60;99.90
40600;DHT22;26309;50.924;4.754;2023-01-28T09:28:30;4.60;99.90
40600;DHT22;26309;50.924;4.754;2023-01-28T09:31:07;4.80;99.90
40600;DHT22;26309;50.924;4.754;2023-01-28T09:33:34;4.80;99.90
40600;DHT22;26309;50.924;4.754;2023-01-28T09:36:02;4.60;99.90
40600;DHT22;26309;50.924;4.754;2023-01-28T09:38:29;4.60;99.90
40600;DHT22;26309;50.924;4.754;2023-01-28T09:40:55;4.50;99.90
40600;DHT22;26309;50.924;4.754;2023-01-28T09:46:01;4.40;99.90
40600;DHT22;26309;50.924;4.754;2023-01-28T09:48:37;4.60;99.90
40600;DHT22;26309;50.924;4.754;2023-01-28T09:51:12;4.60;99.90
40600;DHT22;26309;50.924;4.754;2023-01-28T09:53:44;4.60;99.90
40600;DHT22;26309;50.924;4.754;2023-01-28T09:56:24;4.40;99.90
40600;DHT22;26309;50.924;4.754;2023-01-28T09:58:51;4.40;99.90
40600;DHT22;26309;50.924;4.754;2023-01-28T10:09:53;4.40;99.90
40600;DHT22;26309;50.924;4.754;2023-01-28T10:12:38;4.90;99.90
40600;DHT22;26309;50.924;4.754;2023-01-28T10:17:53;5.00;99.90
40600;DHT22;26309;50.924;4.754;2023-01-28T10:20:26;5.10;99.90
40600;DHT22;26309;50.924;4.754;2023-01-28T10:25:31;4.60;99.90
40600;DHT22;26309;50.924;4.754;2023-01-28T10:27:57;4.40;99.90
40600;DHT22;26309;50.924;4.754;2023-01-28T10:30:27;4.20;99.90
40600;DHT22;26309;50.924;4.754;2023-01-28T10:33:04;4.30;99.90
40600;DHT22;26309;50.924;4.754;2023-01-28T10:35:38;4.50;99.90
40600;DHT22;26309;50.924;4.754;2023-01-28T10:38:07;4.50;99.90
40600;DHT22;26309;50.924;4.754;2023-01-28T10:40:35;4.60;99.90
40600;DHT22;26309;50.924;4.754;2023-01-28T10:43:01;4.60;99.90
40600;DHT22;26309;50.924;4.754;2023-01-28T10:45:37;4.70;99.90
40600;DHT22;26309;50.924;4.754;2023-01-28T10:48:23;4.60;99.90
40600;DHT22;26309;50.924;4.754;2023-01-28T10:50:55;4.30;99.90
40600;DHT22;26309;50.924;4.754;2023-01-28T10:53:33;4.20;99.90
40600;DHT22;26309;50.924;4.754;2023-01-28T10:56:01;4.00;99.90
40600;DHT22;26309;50.924;4.754;2023-01-28T10:58:30;4.10;99.90
40600;DHT22;26309;50.924;4.754;2023-01-28T11:01:00;4.30;99.90
40600;DHT22;26309;50.924;4.754;2023-01-28T11:03:27;4.40;99.90
40600;DHT22;26309;50.924;4.754;2023-01-28T11:05:57;4.00;99.90
40600;DHT22;26309;50.924;4.754;2023-01-28T11:08:26;3.90;99.90
40600;DHT22;26309;50.924;4.754;2023-01-28T11:10:53;4.00;99.90
40600;DHT22;26309;50.924;4.754;2023-01-28T11:13:29;4.00;99.90
40600;DHT22;26309;50.924;4.754;2023-01-28T11:16:02;4.20;99.90
40600;DHT22;26309;50.924;4.754;2023-01-28T11:18:37;4.20;99.90
40600;DHT22;26309;50.924;4.754;2023-01-28T11:21:06;4.40;99.90
40600;DHT22;26309;50.924;4.754;2023-01-28T11:23:50;4.40;99.90
40600;DHT22;26309;50.924;4.754;2023-01-28T11:26:31;4.60;99.90
40600;DHT22;26309;50.924;4.754;2023-01-28T11:28:59;4.70;99.90
40600;DHT22;26309;50.924;4.754;2023-01-28T11:31:25;4.70;99.90
40600;DHT22;26309;50.924;4.754;2023-01-28T11:34:00;4.80;99.90
40600;DHT22;26309;50.924;4.754;2023-01-28T11:36:31;4.80;99.90
40600;DHT22;26309;50.924;4.754;2023-01-28T11:38:59;4.70;99.90
40600;DHT22;26309;50.924;4.754;2023-01-28T11:41:32;4.90;99.90
40600;DHT22;26309;50.924;4.754;2023-01-28T11:44:01;5.00;99.90
40600;DHT22;26309;50.924;4.754;2023-01-28T11:49:09;5.20;99.90
40600;DHT22;26309;50.924;4.754;2023-01-28T12:00:09;5.30;99.90
40600;DHT22;26309;50.924;4.754;2023-01-28T12:18:44;6.00;99.90
40600;DHT22;26309;50.924;4.754;2023-01-28T12:24:09;6.10;99.90
40600;DHT22;26309;50.924;4.754;2023-01-28T12:29:32;6.50;99.90
40600;DHT22;26309;50.924;4.754;2023-01-28T12:32:07;6.50;99.90
40600;DHT22;26309;50.924;4.754;2023-01-28T12:37:56;6.80;99.90
40600;DHT22;26309;50.924;4.754;2023-01-28T12:40:52;7.00;99.90
40600;DHT22;26309;50.924;4.754;2023-01-28T12:49:04;6.30;99.90
40600;DHT22;26309;50.924;4.754;2023-01-28T12:57:00;5.20;99.90
40600;DHT22;26309;50.924;4.754;2023-01-28T12:59:46;5.10;99.90
40600;DHT22;26309;50.924;4.754;2023-01-28T13:07:19;4.90;99.90
40600;DHT22;26309;50.924;4.754;2023-01-28T13:09:59;5.00;99.90
40600;DHT22;26309;50.924;4.754;2023-01-28T13:12:30;5.00;99.90
40600;DHT22;26309;50.924;4.754;2023-01-28T13:14:57;5.10;99.90
40600;DHT22;26309;50.924;4.754;2023-01-28T13:17:26;5.30;99.90
40600;DHT22;26309;50.924;4.754;2023-01-28T13:19:52;5.40;99.90
40600;DHT22;26309;50.924;4.754;2023-01-28T13:22:35;5.50;99.90
40600;DHT22;26309;50.924;4.754;2023-01-28T13:25:19;5.50;99.90
40600;DHT22;26309;50.924;4.754;2023-01-28T13:28:04;5.50;99.90
40600;DHT22;26309;50.924;4.754;2023-01-28T13:30:47;5.30;99.90
40600;DHT22;26309;50.924;4.754;2023-01-28T13:33:36;5.30;99.90
40600;DHT22;26309;50.924;4.754;2023-01-28T13:39:03;5.40;99.90
40600;DHT22;26309;50.924;4.754;2023-01-28T13:46:59;5.30;99.90
40600;DHT22;26309;50.924;4.754;2023-01-28T13:49:39;5.30;99.90
40600;DHT22;26309;50.924;4.754;2023-01-28T13:52:28;4.90;99.90
40600;DHT22;26309;50.924;4.754;2023-01-28T13:55:21;5.00;99.90
40600;DHT22;26309;50.924;4.754;2023-01-28T13:58:56;5.20;99.90
40600;DHT22;26309;50.924;4.754;2023-01-28T14:20:25;6.30;99.90
40600;DHT22;26309;50.924;4.754;2023-01-28T14:22:58;6.30;99.90
40600;DHT22;26309;50.924;4.754;2023-01-28T14:32:16;5.50;99.90
40600;DHT22;26309;50.924;4.754;2023-01-28T14:34:44;5.60;99.90
40600;DHT22;26309;50.924;4.754;2023-01-28T14:37:20;5.50;99.90
40600;DHT22;26309;50.924;4.754;2023-01-28T14:39:51;5.60;99.90
40600;DHT22;26309;50.924;4.754;2023-01-28T14:42:23;5.70;99.90
40600;DHT22;26309;50.924;4.754;2023-01-28T14:45:06;5.80;99.90
40600;DHT22;26309;50.924;4.754;2023-01-28T14:59:20;5.50;99.90
40600;DHT22;26309;50.924;4.754;2023-01-28T15:01:47;5.50;99.90
40600;DHT22;26309;50.924;4.754;2023-01-28T15:04:31;5.30;99.90
40600;DHT22;26309;50.924;4.754;2023-01-28T15:07:11;5.30;99.90
40600;DHT22;26309;50.924;4.754;2023-01-28T15:09:40;5.30;99.90
40600;DHT22;26309;50.924;4.754;2023-01-28T15:12:07;5.40;99.90
40600;DHT22;26309;50.924;4.754;2023-01-28T15:14:34;5.40;99.90
40600;DHT22;26309;50.924;4.754;2023-01-28T15:17:00;5.40;99.90
40600;DHT22;26309;50.924;4.754;2023-01-28T15:19:32;5.50;99.90
40600;DHT22;26309;50.924;4.754;2023-01-28T15:22:12;5.40;99.90
40600;DHT22;26309;50.924;4.754;2023-01-28T15:24:41;5.40;99.90
40600;DHT22;26309;50.924;4.754;2023-01-28T15:27:17;5.40;99.90
40600;DHT22;26309;50.924;4.754;2023-01-28T15:29:56;5.50;99.90
40600;DHT22;26309;50.924;4.754;2023-01-28T15:32:27;5.50;99.90
40600;DHT22;26309;50.924;4.754;2023-01-28T15:34:53;5.50;99.90
40600;DHT22;26309;50.924;4.754;2023-01-28T15:37:20;5.50;99.90
40600;DHT22;26309;50.924;4.754;2023-01-28T15:39:46;5.40;99.90
40600;DHT22;26309;50.924;4.754;2023-01-28T15:42:24;5.40;99.90
40600;DHT22;26309;50.924;4.754;2023-01-28T15:44:55;5.40;99.90
40600;DHT22;26309;50.924;4.754;2023-01-28T15:47:27;5.30;99.90
40600;DHT22;26309;50.924;4.754;2023-01-28T15:49:56;5.30;99.90
40600;DHT22;26309;50.924;4.754;2023-01-28T15:52:34;5.20;99.90
40600;DHT22;26309;50.924;4.754;2023-01-28T15:55:02;5.10;99.90
40600;DHT22;26309;50.924;4.754;2023-01-28T15:57:30;5.00;99.90
40600;DHT22;26309;50.924;4.754;2023-01-28T16:02:32;4.90;99.90
40600;DHT22;26309;50.924;4.754;2023-01-28T16:05:04;4.80;99.90
40600;DHT22;26309;50.924;4.754;2023-01-28T16:07:43;4.70;99.90
40600;DHT22;26309;50.924;4.754;2023-01-28T16:10:29;4.70;99.90
40600;DHT22;26309;50.924;4.754;2023-01-28T16:15:26;4.90;99.90
40600;DHT22;26309;50.924;4.754;2023-01-28T16:17:52;4.70;99.90
40600;DHT22;26309;50.924;4.754;2023-01-28T16:20:21;4.60;99.90
40600;DHT22;26309;50.924;4.754;2023-01-28T16:22:47;4.50;99.90
40600;DHT22;26309;50.924;4.754;2023-01-28T16:25:30;4.50;99.90
40600;DHT22;26309;50.924;4.754;2023-01-28T16:27:57;4.50;99.90
40600;DHT22;26309;50.924;4.754;2023-01-28T16:30:24;4.50;99.90
40600;DHT22;26309;50.924;4.754;2023-01-28T16:32:50;4.50;99.90
40600;DHT22;26309;50.924;4.754;2023-01-28T16:35:21;4.40;99.90
40600;DHT22;26309;50.924;4.754;2023-01-28T16:37:49;4.50;99.90
40600;DHT22;26309;50.924;4.754;2023-01-28T16:40:17;4.50;99.90
40600;DHT22;26309;50.924;4.754;2023-01-28T16:42:44;4.60;99.90
40600;DHT22;26309;50.924;4.754;2023-01-28T16:45:30;4.70;99.90
40600;DHT22;26309;50.924;4.754;2023-01-28T16:47:55;4.70;99.90
40600;DHT22;26309;50.924;4.754;2023-01-28T16:50:21;4.60;99.90
40600;DHT22;26309;50.924;4.754;2023-01-28T16:52:49;4.70;99.90
40600;DHT22;26309;50.924;4.754;2023-01-28T16:55:21;4.60;99.90
40600;DHT22;26309;50.924;4.754;2023-01-28T16:57:49;4.60;99.90
40600;DHT22;26309;50.924;4.754;2023-01-28T17:00:21;4.60;99.90
40600;DHT22;26309;50.924;4.754;2023-01-28T17:02:48;4.60;99.90
40600;DHT22;26309;50.924;4.754;2023-01-28T17:05:14;4.50;99.90
40600;DHT22;26309;50.924;4.754;2023-01-28T17:07:41;4.40;99.90
40600;DHT22;26309;50.924;4.754;2023-01-28T17:10:08;4.30;99.90
40600;DHT22;26309;50.924;4.754;2023-01-28T17:12:34;4.30;99.90
40600;DHT22;26309;50.924;4.754;2023-01-28T17:15:00;4.30;99.90
40600;DHT22;26309;50.924;4.754;2023-01-28T17:17:27;4.30;99.90
40600;DHT22;26309;50.924;4.754;2023-01-28T17:19:53;4.20;99.90
40600;DHT22;26309;50.924;4.754;2023-01-28T17:22:19;4.10;99.90
40600;DHT22;26309;50.924;4.754;2023-01-28T17:24:45;4.00;99.90
40600;DHT22;26309;50.924;4.754;2023-01-28T17:27:11;3.90;99.90
40600;DHT22;26309;50.924;4.754;2023-01-28T17:29:37;3.80;99.90
40600;DHT22;26309;50.924;4.754;2023-01-28T17:32:03;3.70;99.90
40600;DHT22;26309;50.924;4.754;2023-01-28T17:34:29;3.70;99.90
40600;DHT22;26309;50.924;4.754;2023-01-28T17:36:57;3.50;99.90
40600;DHT22;26309;50.924;4.754;2023-01-28T17:40:00;3.30;99.90
40600;DHT22;26309;50.924;4.754;2023-01-28T17:42:32;3.30;99.90
40600;DHT22;26309;50.924;4.754;2023-01-28T17:44:58;3.10;99.90
40600;DHT22;26309;50.924;4.754;2023-01-28T17:47:28;3.00;99.90
40600;DHT22;26309;50.924;4.754;2023-01-28T17:49:54;3.00;99.90
40600;DHT22;26309;50.924;4.754;2023-01-28T17:52:20;3.00;99.90
40600;DHT22;26309;50.924;4.754;2023-01-28T17:54:45;2.90;99.90
40600;DHT22;26309;50.924;4.754;2023-01-28T17:57:11;2.80;99.90
40600;DHT22;26309;50.924;4.754;2023-01-28T17:59:37;2.70;99.90
40600;DHT22;26309;50.924;4.754;2023-01-28T18:02:03;2.60;99.90
40600;DHT22;26309;50.924;4.754;2023-01-28T18:04:39;2.60;99.90
40600;DHT22;26309;50.924;4.754;2023-01-28T18:07:05;2.50;99.90
40600;DHT22;26309;50.924;4.754;2023-01-28T18:09:38;2.40;99.90
40600;DHT22;26309;50.924;4.754;2023-01-28T18:12:06;2.40;99.90
40600;DHT22;26309;50.924;4.754;2023-01-28T18:14:32;2.30;99.90
40600;DHT22;26309;50.924;4.754;2023-01-28T18:16:58;2.10;99.90
40600;DHT22;26309;50.924;4.754;2023-01-28T18:19:24;2.20;99.90
40600;DHT22;26309;50.924;4.754;2023-01-28T18:21:50;2.00;99.90